Rumely, Michigan
Current Conditions -  °F | °C
As of 7:20 AM on Friday 24 Oct 2014 (Local Time) from KSAW Reporting Station
Haze Haze  
Wind Chill: 39°   Ceiling: 300
Heat Index: 43°   Visibility: 0.75mi
Dew Point: 41°   Wind: 6mph
Humidity: 93%   Direction: 240°WSW
Pressure: 29.97"   Gusts: NA
Location:  46.35°N, 87.03°W
Report Text: KSAW 241120Z 24005KT 3/4SM BR OVC003 06/05 A2997
Loading
Personal Weather Stations






























Interactive Weather Map
Tropical Storm Tracking
New forecast layout! Learn more

10-Day Weather Forecast

Advertisements
Track Severe Weather on mobile